Time;durP1;ratioP1;P1;durP2;ratioP2;P2;SDS_P1;SDS_P2;PMS_P1;PMS_P2;Temp;Humidity;BMP_temperature;BMP_pressure;BME280_temperature;BME280_humidity;BME280_pressure;Samples;Min_cycle;Max_cycle;Signal;HPM_P1;HPM_P2
2023/11/10 00:01:58;;;;;;;;;;;;;;;8.03;78.21;100004.64;106486;1263;66173;-86
2023/11/10 00:04:25;;;;;;;;;;;;;;;8.01;78.26;99999.17;106541;1256;71522;-86
2023/11/10 00:06:53;;;;;;;;;;;;;;;7.99;78.25;99999.48;106443;1262;124441;-86
2023/11/10 00:09:20;;;;;;;;;;;;;;;7.95;78.31;100000.98;106532;1263;62111;-87
2023/11/10 00:11:46;;;;;;;;;;;;;;;7.92;78.34;100012.44;106480;1256;125187;-87
2023/11/10 00:14:13;;;;;;;;;;;;;;;7.89;78.32;100011.15;106605;1257;65001;-87
2023/11/10 00:16:42;;;;;;;;;;;;;;;7.87;78.38;99998.34;106405;1262;71197;-87
2023/11/10 00:19:09;;;;;;;;;;;;;;;7.85;78.41;99997.95;106394;1258;125262;-88
2023/11/10 00:21:36;;;;;;;;;;;;;;;7.83;78.48;100001.56;106468;1262;61995;-87
2023/11/10 00:24:05;;;;;;;;;;;;;;;7.84;78.55;100003.14;106436;1258;125469;-87
2023/11/10 00:26:34;;;;;;;;;;;;;;;7.84;78.60;100004.03;106404;1262;66413;-87
2023/11/10 00:29:01;;;;;;;;;;;;;;;7.84;78.57;99996.70;106315;1261;73895;-87
2023/11/10 00:31:27;;;;;;;;;;;;;;;7.86;78.59;99995.16;106455;1257;124853;-87
2023/11/10 00:33:54;;;;;;;;;;;;;;;7.87;78.50;99992.92;106427;1259;62039;-86
2023/11/10 00:36:24;;;;;;;;;;;;;;;7.89;78.69;99992.27;106256;1258;125118;-87
2023/11/10 00:38:51;;;;;;;;;;;;;;;7.91;78.69;99990.92;106451;1261;65934;-86
2023/11/10 00:41:20;;;;;;;;;;;;;;;7.94;78.67;99991.35;106324;1259;73248;-87
2023/11/10 00:43:49;;;;;;;;;;;;;;;7.98;78.75;99991.44;106282;1257;125259;-87
2023/11/10 00:46:17;;;;;;;;;;;;;;;8.04;78.73;99989.81;106333;1257;62175;-86
2023/11/10 00:48:43;;;;;;;;;;;;;;;8.10;78.78;99986.80;106213;1263;124921;-86
2023/11/10 00:51:10;;;;;;;;;;;;;;;8.14;78.72;99982.54;106309;1258;64938;-89
2023/11/10 00:53:38;;;;;;;;;;;;;;;8.17;78.69;99975.45;106292;1268;125192;-86
2023/11/10 00:56:05;;;;;;;;;;;;;;;8.22;78.49;99981.13;106434;1259;62210;-87
2023/11/10 00:58:31;;;;;;;;;;;;;;;8.25;78.42;99981.73;106450;1257;61927;-88
2023/11/10 01:00:58;;;;;;;;;;;;;;;8.29;78.48;99981.80;106388;1260;125837;-88
2023/11/10 01:03:24;;;;;;;;;;;;;;;8.34;78.35;99980.89;106330;1262;66285;-88
2023/11/10 01:05:51;;;;;;;;;;;;;;;8.37;78.38;99978.50;106182;1258;125028;-88
2023/11/10 01:08:18;;;;;;;;;;;;;;;8.42;78.31;99978.08;106485;1258;62164;-89
2023/11/10 01:10:45;;;;;;;;;;;;;;;8.45;78.24;99983.41;106540;1258;62049;-88
2023/11/10 01:13:14;;;;;;;;;;;;;;;8.48;78.24;99980.34;106293;1259;124969;-89
2023/11/10 01:15:41;;;;;;;;;;;;;;;8.50;78.20;99972.16;106325;1257;66336;-89
2023/11/10 01:18:07;;;;;;;;;;;;;;;8.50;78.02;99966.57;106262;1258;125197;-88
2023/11/10 01:20:34;;;;;;;;;;;;;;;8.49;77.94;99961.28;106364;1263;62075;-89
2023/11/10 01:23:01;;;;;;;;;;;;;;;8.47;77.93;99959.68;106403;1256;60833;-89
2023/11/10 01:25:27;;;;;;;;;;;;;;;8.47;77.98;99959.34;106143;1258;124251;-88
2023/11/10 01:27:54;;;;;;;;;;;;;;;8.48;78.06;99958.11;106428;1256;65119;-87
2023/11/10 01:30:21;;;;;;;;;;;;;;;8.47;77.97;99956.02;106328;1257;125492;-87
2023/11/10 01:32:48;;;;;;;;;;;;;;;8.48;77.94;99954.98;106528;1258;62148;-88
2023/11/10 01:35:16;;;;;;;;;;;;;;;8.47;77.91;99950.76;106362;1262;61941;-88
2023/11/10 01:37:42;;;;;;;;;;;;;;;8.47;77.99;99945.52;106352;1258;124337;-87
2023/11/10 01:40:10;;;;;;;;;;;;;;;8.48;77.97;99943.09;106523;1256;63953;-85
2023/11/10 01:42:36;;;;;;;;;;;;;;;8.47;77.86;99941.33;106425;1257;124188;-85
2023/11/10 01:45:03;;;;;;;;;;;;;;;8.46;77.80;99940.95;106342;1258;62095;-85
2023/11/10 01:47:30;;;;;;;;;;;;;;;8.43;77.86;99939.84;106394;1257;124811;-84
2023/11/10 01:49:56;;;;;;;;;;;;;;;8.40;77.91;99936.77;106417;1257;74189;-86
2023/11/10 01:52:23;;;;;;;;;;;;;;;8.37;77.93;99934.09;106345;1259;64662;-87
2023/11/10 01:54:50;;;;;;;;;;;;;;;8.36;77.85;99931.63;106306;1264;125051;-88
2023/11/10 01:57:16;;;;;;;;;;;;;;;8.36;77.88;99925.67;106546;1260;62072;-86
2023/11/10 01:59:44;;;;;;;;;;;;;;;8.35;77.90;99919.52;106506;1258;126194;-87
2023/11/10 02:02:12;;;;;;;;;;;;;;;8.34;77.90;99920.91;106393;1266;74526;-88
2023/11/10 02:04:38;;;;;;;;;;;;;;;8.33;77.83;99925.09;106575;1262;64963;-87
2023/11/10 02:07:05;;;;;;;;;;;;;;;8.31;77.83;99924.52;106056;1264;124960;-87
2023/11/10 02:09:32;;;;;;;;;;;;;;;8.31;77.80;99925.21;106302;1257;62056;-86
2023/11/10 02:11:58;;;;;;;;;;;;;;;8.32;77.88;99924.72;106265;1262;125542;-87
2023/11/10 02:14:25;;;;;;;;;;;;;;;8.31;77.88;99928.20;106335;1264;75645;-88
2023/11/10 02:16:51;;;;;;;;;;;;;;;8.33;77.92;99929.98;106326;1262;65067;-88
2023/11/10 02:19:19;;;;;;;;;;;;;;;8.36;77.91;99931.45;106325;1258;125361;-88
2023/11/10 02:21:46;;;;;;;;;;;;;;;8.41;77.88;99929.08;106436;1263;60442;-88
2023/11/10 02:24:13;;;;;;;;;;;;;;;8.44;77.91;99926.58;106333;1257;125730;-85
2023/11/10 02:26:40;;;;;;;;;;;;;;;8.49;77.84;99918.27;106482;1261;74040;-84
2023/11/10 02:29:07;;;;;;;;;;;;;;;8.52;77.76;99907.67;106380;1261;66280;-84
2023/11/10 02:31:34;;;;;;;;;;;;;;;8.56;77.65;99913.52;106407;1256;125091;-84
2023/11/10 02:34:01;;;;;;;;;;;;;;;8.60;77.65;99915.34;106497;1257;62144;-84
2023/11/10 02:36:32;;;;;;;;;;;;;;;8.62;77.56;99920.10;106515;1257;124858;-83
2023/11/10 02:38:59;;;;;;;;;;;;;;;8.65;77.47;99920.18;106568;1257;74178;-83
2023/11/10 02:41:25;;;;;;;;;;;;;;;8.68;77.43;99920.58;106597;1257;64722;-89
2023/11/10 02:43:52;;;;;;;;;;;;;;;8.71;77.43;99920.63;106399;1259;123962;-84
2023/11/10 02:46:19;;;;;;;;;;;;;;;8.73;77.48;99923.13;106487;1264;62623;-84
2023/11/10 02:48:46;;;;;;;;;;;;;;;8.73;77.31;99923.64;106307;1258;124199;-84
2023/11/10 02:51:13;;;;;;;;;;;;;;;8.72;77.20;99925.90;106404;1257;74468;-84
2023/11/10 02:53:39;;;;;;;;;;;;;;;8.72;77.36;99926.77;106327;1258;125499;-83
2023/11/10 02:56:06;;;;;;;;;;;;;;;8.73;77.40;99923.30;106451;1258;72680;-82
2023/11/10 02:58:33;;;;;;;;;;;;;;;8.73;77.40;99921.04;106504;1261;62156;-82
2023/11/10 03:01:00;;;;;;;;;;;;;;;8.73;77.40;99919.27;106335;1258;125192;-81
2023/11/10 03:03:27;;;;;;;;;;;;;;;8.73;77.52;99913.67;106380;1264;77333;-82
2023/11/10 03:05:56;;;;;;;;;;;;;;;8.78;77.58;99912.88;106311;1259;125223;-82
2023/11/10 03:08:25;;;;;;;;;;;;;;;8.79;77.66;99913.25;106576;1257;71425;-83
2023/11/10 03:10:52;;;;;;;;;;;;;;;8.79;77.69;99909.07;106290;1257;60079;-83
2023/11/10 03:13:19;;;;;;;;;;;;;;;8.80;77.78;99912.74;106308;1262;125528;-83
2023/11/10 03:15:46;;;;;;;;;;;;;;;8.78;77.79;99910.44;106445;1264;75708;-83
2023/11/10 03:18:13;;;;;;;;;;;;;;;8.75;77.99;99907.77;106419;1262;125708;-83
2023/11/10 03:20:40;;;;;;;;;;;;;;;8.74;78.16;99904.06;106399;1257;72639;-83
2023/11/10 03:23:06;;;;;;;;;;;;;;;8.71;78.19;99904.02;106459;1258;61954;-83
2023/11/10 03:25:33;;;;;;;;;;;;;;;8.68;78.29;99903.78;106424;1258;124816;-83
2023/11/10 03:28:00;;;;;;;;;;;;;;;8.67;78.42;99900.80;106263;1263;76661;-86
2023/11/10 03:30:27;;;;;;;;;;;;;;;8.64;78.45;99894.61;106306;1258;124863;-87
2023/11/10 03:32:53;;;;;;;;;;;;;;;8.61;78.73;99892.11;106389;1262;71855;-87
2023/11/10 03:35:20;;;;;;;;;;;;;;;8.57;78.69;99887.30;106552;1263;62130;-83
2023/11/10 03:37:47;;;;;;;;;;;;;;;8.54;78.79;99889.53;106423;1258;124741;-84
2023/11/10 03:40:14;;;;;;;;;;;;;;;8.51;78.86;99888.59;106593;1263;74474;-83
2023/11/10 03:42:41;;;;;;;;;;;;;;;8.48;78.92;99889.05;106445;1260;124904;-83
2023/11/10 03:45:09;;;;;;;;;;;;;;;8.43;79.00;99886.86;106394;1264;71839;-81
2023/11/10 03:47:35;;;;;;;;;;;;;;;8.41;79.14;99887.64;106388;1258;125522;-82
2023/11/10 03:50:02;;;;;;;;;;;;;;;8.38;79.27;99889.89;106421;1258;62152;-81
2023/11/10 03:52:29;;;;;;;;;;;;;;;8.35;79.35;99890.00;106373;1257;75616;-80
2023/11/10 03:54:55;;;;;;;;;;;;;;;8.32;79.46;99881.02;106287;1257;125385;-83
2023/11/10 03:57:22;;;;;;;;;;;;;;;8.31;79.60;99880.65;106484;1271;70543;-80
2023/11/10 03:59:49;;;;;;;;;;;;;;;8.30;79.68;99882.91;106265;1263;125271;-83
2023/11/10 04:02:15;;;;;;;;;;;;;;;8.29;79.71;99879.55;106394;1257;62168;-86
2023/11/10 04:04:42;;;;;;;;;;;;;;;8.28;79.80;99881.11;106475;1262;76148;-85
2023/11/10 04:07:08;;;;;;;;;;;;;;;8.27;79.87;99879.88;106372;1257;125830;-86
2023/11/10 04:09:35;;;;;;;;;;;;;;;8.27;79.94;99879.16;106506;1262;72739;-83
2023/11/10 04:12:03;;;;;;;;;;;;;;;8.25;79.99;99883.66;106357;1257;125146;-82
2023/11/10 04:14:29;;;;;;;;;;;;;;;8.24;80.01;99885.58;106396;1257;62017;-82
2023/11/10 04:16:56;;;;;;;;;;;;;;;8.23;80.12;99885.20;106441;1263;75473;-80
2023/11/10 04:19:23;;;;;;;;;;;;;;;8.23;80.19;99884.16;106189;1257;124901;-80
2023/11/10 04:21:49;;;;;;;;;;;;;;;8.22;80.22;99884.48;106374;1270;73077;-80
2023/11/10 04:24:17;;;;;;;;;;;;;;;8.20;80.20;99883.40;106244;1257;125243;-80
2023/11/10 04:26:44;;;;;;;;;;;;;;;8.18;80.30;99881.43;106352;1260;62063;-81
2023/11/10 04:29:10;;;;;;;;;;;;;;;8.17;80.37;99886.83;106451;1261;74175;-81
2023/11/10 04:31:39;;;;;;;;;;;;;;;8.17;80.39;99884.91;106300;1257;124746;-81
2023/11/10 04:34:05;;;;;;;;;;;;;;;8.17;80.61;99880.55;106330;1263;72788;-82
2023/11/10 04:36:32;;;;;;;;;;;;;;;8.19;80.62;99881.80;106161;1258;125158;-82
2023/11/10 04:38:59;;;;;;;;;;;;;;;8.20;80.69;99885.48;106484;1263;62213;-82
2023/11/10 04:41:25;;;;;;;;;;;;;;;8.20;80.80;99885.67;106326;1257;75651;-81
2023/11/10 04:43:52;;;;;;;;;;;;;;;8.22;80.85;99887.63;106234;1264;127702;-81
2023/11/10 04:46:19;;;;;;;;;;;;;;;8.24;80.86;99886.10;106335;1258;71749;-82
2023/11/10 04:48:45;;;;;;;;;;;;;;;8.27;80.95;99891.91;106234;1257;125194;-80
2023/11/10 04:51:12;;;;;;;;;;;;;;;8.27;81.01;99898.23;106434;1257;60196;-79
2023/11/10 04:53:39;;;;;;;;;;;;;;;8.28;81.00;99894.39;106434;1257;125135;-84
2023/11/10 04:56:06;;;;;;;;;;;;;;;8.28;81.03;99897.54;106566;1263;66364;-79
2023/11/10 04:58:34;;;;;;;;;;;;;;;8.29;81.14;99896.34;106467;1263;72402;-80
2023/11/10 05:01:01;;;;;;;;;;;;;;;8.30;81.11;99893.21;106472;1257;125308;-78
2023/11/10 05:03:31;;;;;;;;;;;;;;;8.32;81.18;99893.77;106497;1257;62066;-85
2023/11/10 05:05:57;;;;;;;;;;;;;;;8.33;81.31;99890.48;106331;1258;125177;-85
2023/11/10 05:08:24;;;;;;;;;;;;;;;8.34;81.23;99889.10;106455;1257;64801;-85
2023/11/10 05:10:51;;;;;;;;;;;;;;;8.33;81.22;99892.77;106395;1258;72473;-84
2023/11/10 05:13:17;;;;;;;;;;;;;;;8.31;81.18;99893.06;106470;1262;124919;-84
2023/11/10 05:15:44;;;;;;;;;;;;;;;8.30;81.33;99900.02;106424;1263;62075;-85
2023/11/10 05:18:14;;;;;;;;;;;;;;;8.31;81.36;99894.28;105996;1263;125163;-85
2023/11/10 05:20:41;;;;;;;;;;;;;;;8.32;81.41;99893.25;106593;1257;66324;-86
2023/11/10 05:23:07;;;;;;;;;;;;;;;8.33;81.42;99888.89;106657;1260;71446;-85
2023/11/10 05:25:35;;;;;;;;;;;;;;;8.32;81.44;99885.02;106564;1261;124905;-85
2023/11/10 05:28:01;;;;;;;;;;;;;;;8.29;81.50;99886.03;106778;1257;62040;-87
2023/11/10 05:30:30;;;;;;;;;;;;;;;8.26;81.33;99888.58;106788;1257;125085;-91
2023/11/10 05:32:57;;;;;;;;;;;;;;;8.22;81.39;99883.95;106513;1257;66074;-87
2023/11/10 05:35:23;;;;;;;;;;;;;;;8.15;81.25;99881.20;106473;1263;71436;-85
2023/11/10 05:37:51;;;;;;;;;;;;;;;8.04;81.12;99884.98;105902;1257;124953;-85
2023/11/10 05:40:17;;;;;;;;;;;;;;;7.92;81.22;99881.42;106591;1258;62149;-82
2023/11/10 05:42:44;;;;;;;;;;;;;;;7.82;81.28;99885.21;105846;1257;125155;-87
2023/11/10 05:45:11;;;;;;;;;;;;;;;7.74;81.47;99882.59;106440;1258;64729;-87
2023/11/10 05:47:38;;;;;;;;;;;;;;;7.67;81.61;99882.26;106274;1263;124891;-85
2023/11/10 05:50:06;;;;;;;;;;;;;;;7.61;81.85;99880.72;106439;1258;62106;-83
2023/11/10 05:52:33;;;;;;;;;;;;;;;7.59;82.06;99883.82;106480;1263;62164;-88
2023/11/10 05:54:59;;;;;;;;;;;;;;;7.59;82.29;99883.81;106355;1257;125707;-87
2023/11/10 05:57:48;;;;;;;;;;;;;;;7.59;82.36;99883.65;106503;1261;66306;-91
2023/11/10 06:00:16;;;;;;;;;;;;;;;7.58;82.42;99882.40;106733;1262;125077;-86
2023/11/10 06:02:43;;;;;;;;;;;;;;;7.54;82.41;99885.11;106508;1257;62167;-87
2023/11/10 06:05:12;;;;;;;;;;;;;;;7.50;82.42;99887.96;106308;1258;62040;-89
2023/11/10 06:07:38;;;;;;;;;;;;;;;7.44;82.45;99890.27;106490;1257;126344;-82
2023/11/10 06:10:07;;;;;;;;;;;;;;;7.36;82.39;99891.85;106480;1257;66224;-77
2023/11/10 06:12:34;;;;;;;;;;;;;;;7.28;82.36;99890.94;106172;1257;125661;-77
2023/11/10 06:15:02;;;;;;;;;;;;;;;7.22;82.50;99890.27;105875;1258;62153;-77
2023/11/10 06:17:29;;;;;;;;;;;;;;;7.14;82.54;99887.46;105863;1257;125602;-78
2023/11/10 06:19:56;;;;;;;;;;;;;;;7.08;82.55;99889.58;106209;1260;74834;-78
2023/11/10 06:22:23;;;;;;;;;;;;;;;7.01;82.67;99886.60;106045;1257;66207;-78
2023/11/10 06:24:50;;;;;;;;;;;;;;;6.95;82.74;99886.11;105944;1257;125339;-77
2023/11/10 06:27:17;;;;;;;;;;;;;;;6.90;82.78;99890.33;106081;1263;62723;-77
2023/11/10 06:29:43;;;;;;;;;;;;;;;6.86;82.95;99890.91;105951;1257;125119;-77
2023/11/10 06:32:11;;;;;;;;;;;;;;;6.81;82.95;99892.73;106600;1258;75464;-77
2023/11/10 06:34:37;;;;;;;;;;;;;;;6.77;83.05;99902.04;106031;1257;64960;-77
2023/11/10 06:37:04;;;;;;;;;;;;;;;6.74;83.14;99901.27;105949;1260;125289;-78
2023/11/10 06:39:31;;;;;;;;;;;;;;;6.71;83.23;99901.71;105911;1260;62091;-77
2023/11/10 06:41:59;;;;;;;;;;;;;;;6.69;83.24;99907.06;105680;1262;125332;-78
2023/11/10 06:44:25;;;;;;;;;;;;;;;6.68;83.46;99912.43;105798;1258;75509;-78
2023/11/10 06:46:53;;;;;;;;;;;;;;;6.67;83.41;99912.76;106448;1257;64657;-78
2023/11/10 06:49:20;;;;;;;;;;;;;;;6.70;83.69;99915.09;105500;1260;125751;-78
2023/11/10 06:51:46;;;;;;;;;;;;;;;6.78;83.86;99916.01;105822;1258;62052;-77
2023/11/10 06:54:13;;;;;;;;;;;;;;;6.86;83.90;99914.64;105712;1258;127154;-77
2023/11/10 06:56:39;;;;;;;;;;;;;;;6.94;83.97;99912.77;105894;1261;75440;-77
2023/11/10 06:59:06;;;;;;;;;;;;;;;7.01;83.84;99914.16;106062;1257;65405;-77
2023/11/10 07:01:33;;;;;;;;;;;;;;;7.06;83.83;99916.73;105766;1257;125511;-77
2023/11/10 07:03:59;;;;;;;;;;;;;;;7.11;83.87;99918.27;106020;1257;62081;-77
2023/11/10 07:06:26;;;;;;;;;;;;;;;7.14;83.73;99913.98;106072;1258;125906;-77
2023/11/10 07:08:53;;;;;;;;;;;;;;;7.18;83.71;99911.11;105928;1257;74424;-77
2023/11/10 07:11:21;;;;;;;;;;;;;;;7.21;83.61;99910.31;105755;1257;65030;-78
2023/11/10 07:13:49;;;;;;;;;;;;;;;7.23;83.58;99912.80;105610;1257;125405;-77
2023/11/10 07:16:20;;;;;;;;;;;;;;;7.23;83.50;99909.33;105745;1257;62108;-77
2023/11/10 07:18:52;;;;;;;;;;;;;;;7.24;83.50;99907.07;105749;1261;125512;-77
2023/11/10 07:21:19;;;;;;;;;;;;;;;7.25;83.45;99912.86;107515;1257;75281;-77
2023/11/10 07:23:46;;;;;;;;;;;;;;;7.26;83.47;99910.96;105684;1257;132238;-77
2023/11/10 07:26:13;;;;;;;;;;;;;;;7.27;83.34;99910.99;105747;1264;72937;-77
2023/11/10 07:28:40;;;;;;;;;;;;;;;7.30;83.40;99908.44;105801;1257;62040;-77
2023/11/10 07:31:07;;;;;;;;;;;;;;;7.34;83.44;99912.02;105845;1260;125100;-77
2023/11/10 07:33:33;;;;;;;;;;;;;;;7.37;83.37;99919.42;105781;1257;73915;-78
2023/11/10 07:36:00;;;;;;;;;;;;;;;7.39;83.33;99919.84;105708;1260;125722;-78
2023/11/10 07:38:28;;;;;;;;;;;;;;;7.43;83.25;99921.84;106449;1263;74068;-78
2023/11/10 07:40:54;;;;;;;;;;;;;;;7.48;83.39;99918.12;106383;1263;62106;-78
2023/11/10 07:43:21;;;;;;;;;;;;;;;7.52;83.33;99912.65;105803;1263;124990;-78
2023/11/10 07:45:48;;;;;;;;;;;;;;;7.57;83.27;99904.21;105766;1257;75307;-78
2023/11/10 07:48:15;;;;;;;;;;;;;;;7.63;83.28;99898.59;105704;1256;125298;-77
2023/11/10 07:50:41;;;;;;;;;;;;;;;7.71;83.27;99900.69;105769;1258;71062;-77
2023/11/10 07:53:08;;;;;;;;;;;;;;;7.79;83.27;99904.36;105902;1258;62059;-83
2023/11/10 07:55:35;;;;;;;;;;;;;;;7.88;83.21;99908.77;105861;1257;125113;-85
2023/11/10 07:58:03;;;;;;;;;;;;;;;7.97;83.19;99909.66;105830;1257;75666;-85
2023/11/10 08:00:30;;;;;;;;;;;;;;;8.07;83.10;99912.13;106256;1258;124902;-84
2023/11/10 08:02:56;;;;;;;;;;;;;;;8.17;83.04;99912.01;106458;1257;71382;-84
2023/11/10 08:05:23;;;;;;;;;;;;;;;8.24;82.86;99910.91;106346;1256;62121;-84
2023/11/10 08:07:52;;;;;;;;;;;;;;;8.28;82.61;99908.55;106248;1257;125133;-85
2023/11/10 08:10:19;;;;;;;;;;;;;;;8.32;82.51;99912.81;106418;1262;75494;-84
2023/11/10 08:12:46;;;;;;;;;;;;;;;8.37;82.50;99911.19;106465;1257;124954;-84
2023/11/10 08:15:12;;;;;;;;;;;;;;;8.45;82.64;99912.94;106432;1256;72608;-85
2023/11/10 08:17:39;;;;;;;;;;;;;;;8.52;82.43;99915.91;106445;1257;125029;-84
2023/11/10 08:20:06;;;;;;;;;;;;;;;8.58;82.32;99916.70;106357;1260;61975;-84
2023/11/10 08:22:33;;;;;;;;;;;;;;;8.61;82.25;99915.02;106475;1257;74082;-85
2023/11/10 08:25:02;;;;;;;;;;;;;;;8.65;81.97;99912.48;106363;1260;124793;-85
2023/11/10 08:27:32;;;;;;;;;;;;;;;8.67;81.88;99911.64;106426;1257;73978;-85
2023/11/10 08:29:59;;;;;;;;;;;;;;;8.66;81.72;99911.27;106372;1258;125182;-85
2023/11/10 08:32:26;;;;;;;;;;;;;;;8.67;81.67;99911.64;106469;1257;61997;-85
2023/11/10 08:34:53;;;;;;;;;;;;;;;8.69;81.67;99912.89;106576;1256;74256;-84
2023/11/10 08:37:20;;;;;;;;;;;;;;;8.71;81.59;99919.75;106356;1258;125097;-83
2023/11/10 08:39:46;;;;;;;;;;;;;;;8.72;81.58;99926.07;106358;1258;71553;-83
2023/11/10 08:42:13;;;;;;;;;;;;;;;8.72;81.45;99926.24;106283;1258;124920;-83
2023/11/10 08:44:42;;;;;;;;;;;;;;;8.75;81.53;99934.52;106428;1256;62097;-84
2023/11/10 08:47:09;;;;;;;;;;;;;;;8.79;81.52;99930.91;106459;1257;74187;-85
2023/11/10 08:49:36;;;;;;;;;;;;;;;8.84;81.46;99933.47;106395;1257;124915;-84
2023/11/10 08:52:04;;;;;;;;;;;;;;;8.90;81.51;99934.10;106520;1258;72677;-85
2023/11/10 08:54:33;;;;;;;;;;;;;;;8.94;81.38;99929.46;106308;1257;124876;-86
2023/11/10 08:57:00;;;;;;;;;;;;;;;8.98;81.39;99927.80;106500;1261;62120;-84
2023/11/10 08:59:26;;;;;;;;;;;;;;;9.03;81.30;99921.20;106429;1257;75280;-85
2023/11/10 09:01:53;;;;;;;;;;;;;;;9.08;81.35;99920.95;106417;1257;68219;-84
2023/11/10 09:04:40;;;;;;;;;;;;;;;9.17;81.36;99917.96;106494;1261;72481;-84
2023/11/10 09:07:27;;;;;;;;;;;;;;;9.28;81.28;99920.25;106400;1257;124833;-84
2023/11/10 09:09:53;;;;;;;;;;;;;;;9.36;81.25;99922.33;106488;1257;59917;-85
2023/11/10 09:12:25;;;;;;;;;;;;;;;9.44;81.24;99919.65;106217;1259;124766;-84
2023/11/10 09:14:53;;;;;;;;;;;;;;;9.53;81.11;99914.01;106360;1257;66352;-84
2023/11/10 09:17:21;;;;;;;;;;;;;;;9.64;81.13;99913.46;106421;1258;71381;-84
2023/11/10 09:19:48;;;;;;;;;;;;;;;9.76;81.01;99913.13;106551;1257;125235;-85
2023/11/10 09:22:15;;;;;;;;;;;;;;;9.88;80.91;99913.65;106360;1258;169122;-85
2023/11/10 09:24:41;;;;;;;;;;;;;;;10.02;80.92;99901.58;106320;1261;125648;-84
2023/11/10 09:27:08;;;;;;;;;;;;;;;10.13;80.57;99902.08;106465;1258;66116;-85
2023/11/10 09:29:34;;;;;;;;;;;;;;;10.26;80.50;99898.05;106389;1260;124922;-84
2023/11/10 09:32:02;;;;;;;;;;;;;;;10.40;80.29;99899.63;106231;1258;62322;-84
2023/11/10 09:34:30;;;;;;;;;;;;;;;10.49;79.87;99896.58;106321;1257;62119;-83
2023/11/10 09:36:57;;;;;;;;;;;;;;;10.54;79.71;99895.41;105782;1257;125403;-83
2023/11/10 09:39:24;;;;;;;;;;;;;;;10.61;79.50;99889.52;105854;1257;66255;-84
2023/11/10 09:41:51;;;;;;;;;;;;;;;10.64;79.31;99885.34;105962;1257;125636;-85
2023/11/10 09:44:17;;;;;;;;;;;;;;;10.65;79.06;99884.83;106430;1258;62145;-84
2023/11/10 09:46:47;;;;;;;;;;;;;;;10.70;79.09;99881.55;106512;1257;62138;-83
2023/11/10 09:49:13;;;;;;;;;;;;;;;10.77;78.98;99888.98;106215;1258;126048;-85
2023/11/10 09:51:40;;;;;;;;;;;;;;;10.84;78.96;99887.66;106406;1257;64145;-78
2023/11/10 09:54:08;;;;;;;;;;;;;;;10.93;78.92;99882.13;105746;1258;126471;-78
2023/11/10 09:56:37;;;;;;;;;;;;;;;11.01;78.82;99887.64;105518;1263;60564;-78
2023/11/10 09:59:07;;;;;;;;;;;;;;;11.06;78.52;99889.81;106005;1261;62065;-77
2023/11/10 10:01:34;;;;;;;;;;;;;;;11.11;78.59;99886.86;105722;1262;125170;-77
2023/11/10 10:04:01;;;;;;;;;;;;;;;11.20;78.51;99890.64;105775;1258;66032;-77
2023/11/10 10:06:27;;;;;;;;;;;;;;;11.28;78.35;99889.29;105566;1258;125687;-77
2023/11/10 10:08:57;;;;;;;;;;;;;;;11.34;78.15;99883.89;106021;1256;62056;-78
2023/11/10 10:11:24;;;;;;;;;;;;;;;11.39;77.99;99881.48;105843;1257;62114;-79
2023/11/10 10:13:52;;;;;;;;;;;;;;;11.43;77.92;99881.85;106358;1257;125243;-78
2023/11/10 10:16:19;;;;;;;;;;;;;;;11.45;77.79;99875.38;106264;1260;66192;-78
2023/11/10 10:18:46;;;;;;;;;;;;;;;11.49;77.53;99875.05;105514;1258;126274;-77
2023/11/10 10:21:13;;;;;;;;;;;;;;;11.54;77.48;99873.32;105788;1262;62175;-77
2023/11/10 10:23:40;;;;;;;;;;;;;;;11.60;77.37;99882.50;105627;1257;124539;-77
2023/11/10 10:26:09;;;;;;;;;;;;;;;11.66;77.37;99877.98;105760;1261;75622;-77
2023/11/10 10:28:37;;;;;;;;;;;;;;;11.71;77.19;99878.35;105676;1257;64953;-78
2023/11/10 10:31:05;;;;;;;;;;;;;;;11.76;77.06;99879.27;105663;1258;124732;-84
2023/11/10 10:33:32;;;;;;;;;;;;;;;11.80;76.85;99882.10;105908;1257;62139;-85
2023/11/10 10:35:59;;;;;;;;;;;;;;;11.82;76.69;99881.06;106488;1261;124603;-84
2023/11/10 10:38:26;;;;;;;;;;;;;;;11.83;76.48;99881.44;105936;1262;74280;-84
2023/11/10 10:40:55;;;;;;;;;;;;;;;11.83;76.38;99878.77;106072;1259;66286;-84
2023/11/10 10:43:21;;;;;;;;;;;;;;;11.88;76.31;99880.23;106499;1257;124448;-85
2023/11/10 10:45:48;;;;;;;;;;;;;;;11.90;76.22;99873.58;106472;1256;61412;-84
2023/11/10 10:48:15;;;;;;;;;;;;;;;11.95;76.23;99876.25;106360;1258;125101;-83
2023/11/10 10:50:42;;;;;;;;;;;;;;;12.03;76.25;99876.46;106449;1257;74526;-85
2023/11/10 10:53:09;;;;;;;;;;;;;;;12.09;75.94;99873.52;106459;1260;64707;-84
2023/11/10 10:55:37;;;;;;;;;;;;;;;12.10;75.86;99867.70;106241;1259;125109;-84
2023/11/10 10:58:04;;;;;;;;;;;;;;;12.14;75.67;99868.08;106674;1257;62269;-85
2023/11/10 11:00:32;;;;;;;;;;;;;;;12.19;75.55;99868.63;106595;1256;124973;-84
2023/11/10 11:03:03;;;;;;;;;;;;;;;12.22;75.41;99866.35;106597;1260;73120;-84
2023/11/10 11:05:30;;;;;;;;;;;;;;;12.21;75.13;99867.23;106446;1261;125230;-84
2023/11/10 11:07:59;;;;;;;;;;;;;;;12.12;74.86;99871.58;106576;1256;71576;-85
2023/11/10 11:10:31;;;;;;;;;;;;;;;12.00;74.62;99869.59;106565;1260;62028;-85
2023/11/10 11:13:14;;;;;;;;;;;;;;;11.94;74.87;99868.52;106275;1257;124454;-84
2023/11/10 11:15:59;;;;;;;;;;;;;;;11.95;74.92;99868.34;106424;1256;73615;-84
2023/11/10 11:18:29;;;;;;;;;;;;;;;12.00;75.16;99869.59;106365;1258;124807;-84
2023/11/10 11:20:55;;;;;;;;;;;;;;;12.07;75.15;99874.72;106524;1257;72720;-84
2023/11/10 11:23:22;;;;;;;;;;;;;;;12.10;74.97;99874.56;106572;1262;62143;-84
2023/11/10 11:25:58;;;;;;;;;;;;;;;12.17;74.93;99871.96;106451;1256;124423;-83
2023/11/10 11:28:28;;;;;;;;;;;;;;;12.24;74.70;99871.81;106496;1258;74690;-85
2023/11/10 11:31:03;;;;;;;;;;;;;;;12.29;74.60;99868.67;106288;1257;124567;-85
2023/11/10 11:33:30;;;;;;;;;;;;;;;12.29;74.59;99864.27;106511;1259;72826;-84
2023/11/10 11:35:59;;;;;;;;;;;;;;;12.34;74.55;99866.21;106376;1257;124753;-84
2023/11/10 11:38:29;;;;;;;;;;;;;;;12.36;74.47;99864.65;106423;1260;61973;-84
2023/11/10 11:40:59;;;;;;;;;;;;;;;12.41;74.36;99861.67;106466;1257;74848;-85
2023/11/10 11:43:25;;;;;;;;;;;;;;;12.44;74.20;99862.75;106370;1256;125282;-85
2023/11/10 11:45:56;;;;;;;;;;;;;;;12.46;74.12;99861.70;106700;1256;71267;-84
2023/11/10 11:48:22;;;;;;;;;;;;;;;12.43;74.00;99864.33;106510;1256;125958;-85
2023/11/10 11:50:52;;;;;;;;;;;;;;;12.43;73.92;99861.51;106541;1257;62440;-84
2023/11/10 11:53:22;;;;;;;;;;;;;;;12.47;73.83;99859.05;106436;1256;75234;-85
2023/11/10 11:55:50;;;;;;;;;;;;;;;12.47;73.80;99852.19;106314;1263;124925;-85
2023/11/10 11:58:16;;;;;;;;;;;;;;;12.45;73.68;99850.06;106556;1256;71905;-84
2023/11/10 12:00:43;;;;;;;;;;;;;;;12.43;73.43;99844.61;105983;1259;124613;-85
2023/11/10 12:03:10;;;;;;;;;;;;;;;12.39;73.30;99847.41;106484;1260;62740;-84
2023/11/10 12:05:37;;;;;;;;;;;;;;;12.36;73.25;99844.60;106384;1257;124991;-84
2023/11/10 12:08:05;;;;;;;;;;;;;;;12.36;73.31;99850.05;106472;1257;64384;-84
2023/11/10 12:10:32;;;;;;;;;;;;;;;12.33;73.30;99847.75;106399;1262;72753;-85
2023/11/10 12:12:58;;;;;;;;;;;;;;;12.29;73.34;99849.14;106369;1257;124384;-84
2023/11/10 12:15:25;;;;;;;;;;;;;;;12.28;73.31;99844.03;106474;1258;62606;-85
2023/11/10 12:17:53;;;;;;;;;;;;;;;12.29;73.46;99845.61;106398;1257;124586;-84
2023/11/10 12:20:22;;;;;;;;;;;;;;;12.30;73.36;99842.29;106586;1258;66110;-84
2023/11/10 12:22:53;;;;;;;;;;;;;;;12.32;73.47;99838.95;106457;1257;72749;-84
2023/11/10 12:25:29;;;;;;;;;;;;;;;12.32;73.39;99838.24;105889;1258;123228;-84
2023/11/10 12:27:56;;;;;;;;;;;;;;;12.29;73.20;99841.40;105981;1262;62205;-84
2023/11/10 12:30:23;;;;;;;;;;;;;;;12.24;73.22;99847.18;105812;1257;124317;-84
2023/11/10 12:32:52;;;;;;;;;;;;;;;12.20;73.18;99849.98;106553;1258;65961;-84
2023/11/10 12:35:19;;;;;;;;;;;;;;;12.19;73.34;99851.91;106503;1258;71468;-86
2023/11/10 12:37:46;;;;;;;;;;;;;;;12.18;73.27;99853.16;106421;1256;125134;-84
2023/11/10 12:40:17;;;;;;;;;;;;;;;12.14;73.27;99849.43;106057;1261;62070;-84
2023/11/10 12:42:47;;;;;;;;;;;;;;;12.09;73.22;99846.25;105926;1258;124421;-85